Time;durP1;ratioP1;P1;durP2;ratioP2;P2;SDS_P1;SDS_P2;PMS_P1;PMS_P2;Temp;Humidity;BMP_temperature;BMP_pressure;BME280_temperature;BME280_humidity;BME280_pressure;Samples;Min_cycle;Max_cycle;Signal;HPM_P1;HPM_P2
2024/01/25 00:00:40;;;;;;;;;;;8.80;1.00;;;;;;5046722;28;19905;-75
2024/01/25 00:03:05;;;;;;;;;;;8.70;1.00;;;;;;5043916;28;19905;-75
2024/01/25 00:05:32;;;;;;;;;;;8.70;1.00;;;;;;5040253;28;19963;-75
2024/01/25 00:07:58;;;;;;;;;;;8.70;1.00;;;;;;5049611;28;20333;-75
2024/01/25 00:10:28;;;;;;;;;;;8.60;1.00;;;;;;5037102;28;19905;-75
2024/01/25 00:12:54;;;;;;;;;;;8.70;1.00;;;;;;5040463;28;19908;-76
2024/01/25 00:18:22;;;;;;;;;;;8.80;1.00;;;;;;5033990;28;20429;-76
2024/01/25 00:20:52;;;;;;;;;;;8.80;1.00;;;;;;5040113;28;19956;-75
2024/01/25 00:23:17;;;;;;;;;;;8.90;1.00;;;;;;5046829;28;19909;-75
2024/01/25 00:25:43;;;;;;;;;;;8.80;1.00;;;;;;5043467;28;19965;-75
2024/01/25 00:28:40;;;;;;;;;;;8.80;1.00;;;;;;5040162;28;19943;-75
2024/01/25 00:31:10;;;;;;;;;;;8.80;1.00;;;;;;5039959;28;19912;-75
2024/01/25 00:33:36;;;;;;;;;;;8.80;1.00;;;;;;5036502;28;19951;-75
2024/01/25 00:36:10;;;;;;;;;;;8.70;1.00;;;;;;5033683;28;19913;-75
2024/01/25 00:41:40;;;;;;;;;;;8.70;1.00;;;;;;5039307;28;19919;-76
2024/01/25 00:44:22;;;;;;;;;;;8.80;1.00;;;;;;5034433;28;20000;-77
2024/01/25 00:49:51;;;;;;;;;;;8.80;1.00;;;;;;5044742;28;19915;-76
2024/01/25 00:55:41;;;;;;;;;;;8.90;1.00;;;;;;5034926;28;20415;-75
2024/01/25 00:58:10;;;;;;;;;;;8.90;1.00;;;;;;5044880;28;19912;-76
2024/01/25 01:00:36;;;;;;;;;;;8.90;1.00;;;;;;5040775;28;19916;-75
2024/01/25 01:06:05;;;;;;;;;;;9.00;1.00;;;;;;5038379;28;20405;-75
2024/01/25 01:08:46;;;;;;;;;;;9.10;1.00;;;;;;5052209;28;19999;-75
2024/01/25 01:14:15;;;;;;;;;;;9.10;1.00;;;;;;5056861;28;19912;-76
2024/01/25 01:19:46;;;;;;;;;;;9.10;1.00;;;;;;5050110;28;19988;-76
2024/01/25 01:22:40;;;;;;;;;;;9.10;1.00;;;;;;5040232;28;19920;-76
2024/01/25 01:25:05;;;;;;;;;;;9.10;1.00;;;;;;5050243;28;19936;-73
2024/01/25 01:27:34;;;;;;;;;;;9.10;1.00;;;;;;5047083;28;19950;-74
2024/01/25 01:29:59;;;;;;;;;;;9.10;1.00;;;;;;5043326;28;20003;-74
2024/01/25 01:32:52;;;;;;;;;;;9.10;1.00;;;;;;5046084;28;19963;-75
2024/01/25 01:35:17;;;;;;;;;;;9.10;1.00;;;;;;5041849;28;19924;-74
2024/01/25 01:40:46;;;;;;;;;;;9.20;1.00;;;;;;5049149;28;19919;-76
2024/01/25 01:46:37;;;;;;;;;;;9.20;1.00;;;;;;5049990;28;20008;-76
2024/01/25 01:55:43;;;;;;;;;;;9.00;1.00;;;;;;5046849;28;19926;-75
2024/01/25 01:58:34;;;;;;;;;;;9.10;1.00;;;;;;5055971;28;19912;-75
2024/01/25 02:01:04;;;;;;;;;;;9.00;1.00;;;;;;5041002;28;20110;-75
2024/01/25 02:06:33;;;;;;;;;;;9.00;1.00;;;;;;5046776;28;19915;-76
2024/01/25 02:08:58;;;;;;;;;;;9.00;1.00;;;;;;5046789;28;19909;-76
2024/01/25 02:14:40;;;;;;;;;;;9.00;1.00;;;;;;5036021;28;19912;-77
2024/01/25 02:17:28;;;;;;;;;;;9.10;1.00;;;;;;5049515;28;20045;-77
2024/01/25 02:20:04;;;;;;;;;;;9.10;1.00;;;;;;5035956;28;19905;-77
2024/01/25 02:22:52;;;;;;;;;;;9.00;1.00;;;;;;5047627;28;19963;-77
2024/01/25 02:31:28;;;;;;;;;;;9.10;1.00;;;;;;5049110;28;19916;-75
2024/01/25 02:37:12;;;;;;;;;;;9.00;1.00;;;;;;5040730;28;20392;-75
2024/01/25 02:42:58;;;;;;;;;;;9.00;1.00;;;;;;5047661;28;20387;-76
2024/01/25 02:45:23;;;;;;;;;;;9.00;1.00;;;;;;5043495;28;19912;-76
2024/01/25 02:47:58;;;;;;;;;;;8.80;1.00;;;;;;5041816;28;19970;-76
2024/01/25 02:53:26;;;;;;;;;;;8.70;1.00;;;;;;5035529;28;19912;-76
2024/01/25 02:55:52;;;;;;;;;;;8.60;1.00;;;;;;5049144;28;19905;-76
2024/01/25 02:58:17;;;;;;;;;;;8.60;1.00;;;;;;5047646;28;19945;-76
2024/01/25 03:01:10;;;;;;;;;;;8.60;1.00;;;;;;5037532;28;19913;-76
2024/01/25 03:03:46;;;;;;;;;;;8.60;1.00;;;;;;5048437;28;19956;-76
2024/01/25 03:09:14;;;;;;;;;;;8.50;1.00;;;;;;5035933;28;19912;-76
2024/01/25 03:11:58;;;;;;;;;;;8.60;1.00;;;;;;5034763;28;19909;-77
2024/01/25 03:17:26;;;;;;;;;;;8.40;1.00;;;;;;5045526;28;19912;-77
2024/01/25 03:20:04;;;;;;;;;;;8.40;1.00;;;;;;5050605;28;19913;-77
2024/01/25 03:22:40;;;;;;;;;;;8.40;1.00;;;;;;5046195;28;19923;-77
2024/01/25 03:25:28;;;;;;;;;;;8.30;1.00;;;;;;5047027;28;19936;-76
2024/01/25 03:30:56;;;;;;;;;;;8.20;1.00;;;;;;5047847;28;19915;-75
2024/01/25 03:33:40;;;;;;;;;;;8.20;1.00;;;;;;5034520;28;20000;-76
2024/01/25 03:36:22;;;;;;;;;;;8.10;1.00;;;;;;5041554;28;20055;-75
2024/01/25 03:39:17;;;;;;;;;;;8.10;1.00;;;;;;5034607;28;19909;-77
2024/01/25 03:41:42;;;;;;;;;;;8.10;1.00;;;;;;5042908;28;19935;-77
2024/01/25 03:44:16;;;;;;;;;;;8.10;1.00;;;;;;5051854;28;20364;-76
2024/01/25 03:46:42;;;;;;;;;;;8.20;1.00;;;;;;5034434;28;19909;-77
2024/01/25 03:49:40;;;;;;;;;;;8.20;1.00;;;;;;5045939;28;19916;-77
2024/01/25 03:52:30;;;;;;;;;;;8.20;1.00;;;;;;5048494;28;19916;-76
2024/01/25 03:57:59;;;;;;;;;;;8.10;1.00;;;;;;5053728;28;19912;-75
2024/01/25 04:00:40;;;;;;;;;;;8.10;1.00;;;;;;5043072;28;19909;-75
2024/01/25 04:06:22;;;;;;;;;;;8.00;1.00;;;;;;5041185;28;19947;-75
2024/01/25 04:08:48;;;;;;;;;;;8.10;1.00;;;;;;5036866;28;20309;-76
2024/01/25 04:17:19;;;;;;;;;;;7.80;1.00;;;;;;5053845;28;19924;-77
2024/01/25 04:19:45;;;;;;;;;;;7.80;1.00;;;;;;5038321;28;20291;-76
2024/01/25 04:22:16;;;;;;;;;;;7.70;1.00;;;;;;5037438;28;19912;-77
2024/01/25 04:24:52;;;;;;;;;;;7.50;1.00;;;;;;5050629;28;19909;-77
2024/01/25 04:27:18;;;;;;;;;;;7.30;1.00;;;;;;5040553;28;19909;-78
2024/01/25 04:29:43;;;;;;;;;;;7.30;1.00;;;;;;5032739;28;19974;-76
2024/01/25 04:35:22;;;;;;;;;;;7.30;1.00;;;;;;5046838;28;20463;-77
2024/01/25 04:37:47;;;;;;;;;;;7.20;1.00;;;;;;5055268;28;19908;-78
2024/01/25 04:40:34;;;;;;;;;;;7.20;1.00;;;;;;5057631;28;19905;-76
2024/01/25 04:46:03;;;;;;;;;;;7.10;1.00;;;;;;5045023;28;19919;-77
2024/01/25 04:48:58;;;;;;;;;;;7.10;1.00;;;;;;5040687;28;19909;-77
2024/01/25 04:54:27;;;;;;;;;;;7.00;1.00;;;;;;5037822;28;19928;-76
2024/01/25 04:57:10;;;;;;;;;;;7.00;1.00;;;;;;5042016;28;20352;-76
2024/01/25 04:59:46;;;;;;;;;;;6.90;1.00;;;;;;5047608;28;19951;-76
2024/01/25 05:05:15;;;;;;;;;;;6.80;1.00;;;;;;5043001;28;19916;-76
2024/01/25 05:16:49;;;;;;;;;;;7.00;1.00;;;;;;5046664;28;19928;-77
2024/01/25 05:22:18;;;;;;;;;;;7.00;1.00;;;;;;5037841;28;20039;-77
2024/01/25 05:24:52;;;;;;;;;;;6.90;1.00;;;;;;5055150;28;19916;-77
2024/01/25 05:27:18;;;;;;;;;;;6.90;1.00;;;;;;5056676;28;19912;-77
2024/01/25 05:39:06;;;;;;;;;;;7.10;1.00;;;;;;5039559;28;19912;-76
2024/01/25 05:41:31;;;;;;;;;;;7.10;1.00;;;;;;5035600;28;20395;-76
2024/01/25 05:44:11;;;;;;;;;;;7.10;1.00;;;;;;5052327;28;19943;-76
2024/01/25 05:49:40;;;;;;;;;;;7.10;1.00;;;;;;5036910;28;19956;-77
2024/01/25 05:52:36;;;;;;;;;;;7.10;1.00;;;;;;5051421;28;19999;-76
2024/01/25 05:55:02;;;;;;;;;;;7.20;1.00;;;;;;5047367;28;19916;-77
2024/01/25 05:57:27;;;;;;;;;;;7.20;1.00;;;;;;5036362;28;19909;-77
2024/01/25 06:00:28;;;;;;;;;;;7.10;1.00;;;;;;5040023;28;19905;-76
2024/01/25 06:03:16;;;;;;;;;;;7.00;1.00;;;;;;5046721;28;20417;-77
2024/01/25 06:08:44;;;;;;;;;;;6.90;1.00;;;;;;5046261;28;20379;-77
2024/01/25 06:14:13;;;;;;;;;;;6.80;1.00;;;;;;5042155;28;19912;-76
2024/01/25 06:19:46;;;;;;;;;;;6.70;1.00;;;;;;5073388;28;20451;-76
2024/01/25 06:22:28;;;;;;;;;;;6.60;1.00;;;;;;5049874;28;19919;-76
2024/01/25 06:31:22;;;;;;;;;;;6.60;1.00;;;;;;5054299;28;20379;-77
2024/01/25 06:34:10;;;;;;;;;;;6.60;1.00;;;;;;5073956;28;19908;-76
2024/01/25 06:36:58;;;;;;;;;;;6.50;1.00;;;;;;5059685;28;19938;-76
2024/01/25 06:39:34;;;;;;;;;;;6.50;1.00;;;;;;5053441;28;19915;-76
2024/01/25 06:41:59;;;;;;;;;;;6.60;1.00;;;;;;5050762;28;19916;-76
2024/01/25 06:44:58;;;;;;;;;;;6.60;1.00;;;;;;5040674;28;20422;-76
2024/01/25 06:47:46;;;;;;;;;;;6.60;1.00;;;;;;5035009;28;19916;-76
2024/01/25 06:53:22;;;;;;;;;;;6.70;1.00;;;;;;5044647;28;19924;-75
2024/01/25 06:55:48;;;;;;;;;;;6.60;1.00;;;;;;5043494;28;19954;-75
2024/01/25 06:58:16;;;;;;;;;;;6.50;1.00;;;;;;5046223;28;20410;-75
2024/01/25 07:01:07;;;;;;;;;;;6.50;1.00;;;;;;5054753;28;19916;-75
2024/01/25 07:04:04;;;;;;;;;;;6.40;1.00;;;;;;5039823;28;19909;-75
2024/01/25 07:06:34;;;;;;;;;;;6.30;1.00;;;;;;5034807;28;19909;-76
2024/01/25 07:09:16;;;;;;;;;;;6.30;1.00;;;;;;5034895;28;19905;-75
2024/01/25 07:15:10;;;;;;;;;;;6.30;1.00;;;;;;5042907;28;19916;-75
2024/01/25 07:20:38;;;;;;;;;;;6.10;1.00;;;;;;5034426;28;19912;-75
2024/01/25 07:26:07;;;;;;;;;;;6.00;1.00;;;;;;5041099;28;19951;-75
2024/01/25 07:28:32;;;;;;;;;;;6.00;1.00;;;;;;5042342;28;19905;-75
2024/01/25 07:31:28;;;;;;;;;;;5.90;1.00;;;;;;5039732;28;19905;-75
2024/01/25 07:39:59;;;;;;;;;;;5.70;1.00;;;;;;5038612;28;20345;-75
2024/01/25 07:42:58;;;;;;;;;;;5.70;1.00;;;;;;5034135;28;19968;-78
2024/01/25 07:45:34;;;;;;;;;;;5.70;1.00;;;;;;5040699;28;19940;-77
2024/01/25 07:51:34;;;;;;;;;;;5.60;1.00;;;;;;5037142;28;20000;-77
2024/01/25 07:57:10;;;;;;;;;;;5.60;1.00;;;;;;5047397;28;19994;-76
2024/01/25 07:59:52;;;;;;;;;;;5.70;1.00;;;;;;5034961;28;19905;-76
2024/01/25 08:11:05;;;;;;;;;;;5.70;1.00;;;;;;5034056;28;19909;-78
2024/01/25 08:14:05;;;;;;;;;;;5.80;1.00;;;;;;5046853;28;19959;-78
2024/01/25 08:16:35;;;;;;;;;;;5.90;1.00;;;;;;5047174;28;19909;-78
2024/01/25 08:19:00;;;;;;;;;;;6.10;1.00;;;;;;5034837;28;20399;-78
2024/01/25 08:21:40;;;;;;;;;;;6.10;1.00;;;;;;5035693;28;20005;-78
2024/01/25 08:24:16;;;;;;;;;;;6.50;1.00;;;;;;5036666;28;19936;-78
2024/01/25 08:26:46;;;;;;;;;;;6.50;1.00;;;;;;5043205;28;19916;-76
2024/01/25 08:29:16;;;;;;;;;;;6.70;1.00;;;;;;5033128;28;19905;-75
2024/01/25 08:34:44;;;;;;;;;;;6.70;1.00;;;;;;5052986;28;19962;-76
2024/01/25 08:37:10;;;;;;;;;;;6.70;1.00;;;;;;5039379;28;19913;-75
2024/01/25 08:39:52;;;;;;;;;;;6.90;1.00;;;;;;5033392;28;19905;-83
2024/01/25 08:42:22;;;;;;;;;;;6.90;1.00;;;;;;5041788;28;19966;-76
2024/01/25 08:44:52;;;;;;;;;;;6.90;1.00;;;;;;5041011;28;19909;-75
2024/01/25 08:47:46;;;;;;;;;;;7.10;1.00;;;;;;5051033;28;19905;-76
2024/01/25 08:53:26;;;;;;;;;;;7.30;1.00;;;;;;5052055;28;20043;-77
2024/01/25 08:58:55;;;;;;;;;;;7.60;1.00;;;;;;5041563;28;19912;-78
2024/01/25 09:04:23;;;;;;;;;;;7.70;1.00;;;;;;5036750;28;20375;-78
2024/01/25 09:16:22;;;;;;;;;;;8.50;1.00;;;;;;5047861;28;19911;-78
2024/01/25 09:18:48;;;;;;;;;;;8.60;1.00;;;;;;5053881;28;19912;-78
2024/01/25 09:21:40;;;;;;;;;;;8.60;1.00;;;;;;5053723;28;19912;-78
2024/01/25 09:24:22;;;;;;;;;;;8.60;1.00;;;;;;5045325;28;19909;-78
2024/01/25 09:27:10;;;;;;;;;;;8.90;1.00;;;;;;5055224;28;19916;-78
2024/01/25 09:38:46;;;;;;;;;;;9.40;1.00;;;;;;5047298;28;20046;-78
2024/01/25 09:41:12;;;;;;;;;;;9.60;1.00;;;;;;5047305;28;20062;-74
2024/01/25 09:43:46;;;;;;;;;;;9.60;1.00;;;;;;5045791;28;20305;-74
2024/01/25 09:46:17;;;;;;;;;;;9.60;1.00;;;;;;5054684;28;20245;-73
2024/01/25 09:48:45;;;;;;;;;;;9.70;1.00;;;;;;5052511;28;19946;-74
2024/01/25 09:51:11;;;;;;;;;;;9.70;1.00;;;;;;5053921;28;19944;-73
2024/01/25 09:53:38;;;;;;;;;;;9.90;1.00;;;;;;5052454;28;19993;-74
2024/01/25 09:56:10;;;;;;;;;;;10.10;1.00;;;;;;5049982;28;20042;-74
2024/01/25 09:58:46;;;;;;;;;;;10.30;1.00;;;;;;5042461;28;19905;-74
2024/01/25 10:01:16;;;;;;;;;;;10.40;1.00;;;;;;5041236;28;19913;-73
2024/01/25 10:03:42;;;;;;;;;;;10.50;1.00;;;;;;5038364;28;19904;-73
2024/01/25 10:06:08;;;;;;;;;;;10.50;1.00;;;;;;5050341;28;20367;-73
2024/01/25 10:08:34;;;;;;;;;;;10.60;1.00;;;;;;5051887;28;19909;-74
2024/01/25 10:11:14;;;;;;;;;;;10.60;1.00;;;;;;5039947;28;19909;-73
2024/01/25 10:14:06;;;;;;;;;;;10.90;1.00;;;;;;5051989;28;20009;-77
2024/01/25 10:16:32;;;;;;;;;;;11.00;1.00;;;;;;5040906;28;19916;-76
2024/01/25 10:22:01;;;;;;;;;;;11.30;1.00;;;;;;5039096;28;20314;-78
2024/01/25 10:24:28;;;;;;;;;;;11.20;1.00;;;;;;5036079;28;20241;-77
2024/01/25 10:26:54;;;;;;;;;;;11.10;1.00;;;;;;5034532;28;19916;-73
2024/01/25 10:29:28;;;;;;;;;;;11.20;1.00;;;;;;5034052;28;19905;-74
2024/01/25 10:31:54;;;;;;;;;;;11.30;1.00;;;;;;5036462;28;19954;-74
2024/01/25 10:34:20;;;;;;;;;;;11.30;1.00;;;;;;5040099;28;19905;-74
2024/01/25 10:36:46;;;;;;;;;;;11.20;1.00;;;;;;5036645;28;19909;-74
2024/01/25 10:39:12;;;;;;;;;;;11.10;1.00;;;;;;5044828;28;19915;-74
2024/01/25 10:41:39;;;;;;;;;;;10.90;1.00;;;;;;5044685;28;19912;-75
2024/01/25 10:44:10;;;;;;;;;;;10.80;1.00;;;;;;5041380;28;19920;-78
2024/01/25 10:46:49;;;;;;;;;;;10.80;1.00;;;;;;5051702;28;19905;-77
2024/01/25 10:49:15;;;;;;;;;;;10.90;1.00;;;;;;5041017;28;19909;-77
2024/01/25 10:52:10;;;;;;;;;;;11.00;1.00;;;;;;5038541;28;19916;-78
2024/01/25 10:54:58;;;;;;;;;;;11.10;1.00;;;;;;5047177;28;19905;-78
2024/01/25 11:03:34;;;;;;;;;;;10.60;1.00;;;;;;5054620;28;20060;-79
2024/01/25 11:06:11;;;;;;;;;;;10.60;1.00;;;;;;5040227;28;19996;-78
2024/01/25 11:14:42;;;;;;;;;;;10.60;1.00;;;;;;5048739;28;20376;-78
2024/01/25 11:17:20;;;;;;;;;;;10.80;1.00;;;;;;5041251;28;19913;-76
2024/01/25 11:25:54;;;;;;;;;;;10.60;1.00;;;;;;5041380;28;20383;-75
2024/01/25 11:28:22;;;;;;;;;;;10.60;1.00;;;;;;5042263;28;20043;-76
2024/01/25 11:30:49;;;;;;;;;;;10.60;1.00;;;;;;5044358;28;20327;-75
2024/01/25 11:33:28;;;;;;;;;;;10.70;1.00;;;;;;5034125;28;19909;-75
2024/01/25 11:36:10;;;;;;;;;;;10.70;1.00;;;;;;5038797;28;20367;-75
2024/01/25 11:38:58;;;;;;;;;;;10.70;1.00;;;;;;5047577;28;19958;-75
2024/01/25 11:41:24;;;;;;;;;;;10.90;1.00;;;;;;5035515;28;19978;-75
2024/01/25 11:46:55;;;;;;;;;;;11.10;1.00;;;;;;5040883;28;20410;-75
2024/01/25 11:52:46;;;;;;;;;;;11.10;1.00;;;;;;5046258;28;19989;-75
2024/01/25 11:55:16;;;;;;;;;;;11.20;1.00;;;;;;5042502;28;19915;-76
2024/01/25 11:57:46;;;;;;;;;;;11.30;1.00;;;;;;5039732;28;19913;-74
2024/01/25 12:00:16;;;;;;;;;;;11.40;1.00;;;;;;5044534;28;20041;-75
2024/01/25 12:03:04;;;;;;;;;;;11.50;1.00;;;;;;5049028;28;20371;-77
2024/01/25 12:05:52;;;;;;;;;;;11.50;1.00;;;;;;5039114;28;19916;-77
2024/01/25 12:08:22;;;;;;;;;;;11.70;1.00;;;;;;5043698;28;19959;-75
2024/01/25 12:10:48;;;;;;;;;;;11.80;1.00;;;;;;5042861;28;19909;-77
2024/01/25 12:13:28;;;;;;;;;;;12.00;1.00;;;;;;5042140;28;19991;-75
2024/01/25 12:22:00;;;;;;;;;;;11.80;1.00;;;;;;5039883;28;19916;-76
2024/01/25 12:24:30;;;;;;;;;;;11.60;1.00;;;;;;5051578;28;19999;-76
2024/01/25 12:30:04;;;;;;;;;;;11.60;1.00;;;;;;5038578;28;19958;-76
2024/01/25 12:32:48;;;;;;;;;;;11.70;1.00;;;;;;5048662;28;20001;-77
2024/01/25 12:41:19;;;;;;;;;;;11.60;1.00;;;;;;5033072;28;19916;-75
2024/01/25 12:43:46;;;;;;;;;;;11.70;1.00;;;;;;5046930;28;19917;-75
2024/01/25 12:46:28;;;;;;;;;;;11.90;1.00;;;;;;5047676;28;19994;-74
2024/01/25 12:48:55;;;;;;;;;;;11.90;1.00;;;;;;5043699;28;19909;-74
2024/01/25 12:51:21;;;;;;;;;;;12.20;1.00;;;;;;5038413;28;19912;-74
2024/01/25 12:53:47;;;;;;;;;;;12.40;1.00;;;;;;5037529;28;20360;-74
2024/01/25 12:56:13;;;;;;;;;;;11.90;1.00;;;;;;5047011;28;19958;-73
2024/01/25 12:58:39;;;;;;;;;;;12.00;1.00;;;;;;5042764;28;19922;-75
2024/01/25 13:01:05;;;;;;;;;;;11.80;1.00;;;;;;5048074;28;20028;-79
2024/01/25 13:03:46;;;;;;;;;;;12.30;1.00;;;;;;5042361;28;20650;-74
2024/01/25 13:06:16;;;;;;;;;;;12.40;1.00;;;;;;5053910;28;19962;-74
2024/01/25 13:08:52;;;;;;;;;;;12.90;1.00;;;;;;5051142;28;19912;-74
2024/01/25 13:11:18;;;;;;;;;;;12.80;1.00;;;;;;5041996;28;19909;-74
2024/01/25 13:16:52;;;;;;;;;;;12.90;1.00;;;;;;5049535;28;19916;-76
2024/01/25 13:28:27;;;;;;;;;;;12.90;1.00;;;;;;5055526;28;19958;-77
2024/01/25 13:30:53;;;;;;;;;;;12.90;1.00;;;;;;5047585;28;20003;-78
2024/01/25 13:33:52;;;;;;;;;;;13.20;1.00;;;;;;5051271;28;20007;-77
2024/01/25 13:36:22;;;;;;;;;;;13.10;1.00;;;;;;5047874;28;19904;-77
2024/01/25 13:38:52;;;;;;;;;;;13.00;1.00;;;;;;5043769;28;19990;-78
2024/01/25 13:41:18;;;;;;;;;;;12.80;1.00;;;;;;5052759;28;19908;-76
2024/01/25 13:43:43;;;;;;;;;;;12.80;1.00;;;;;;5049750;28;19932;-76
2024/01/25 13:49:28;;;;;;;;;;;12.80;1.00;;;;;;5047771;28;19999;-76
2024/01/25 13:54:57;;;;;;;;;;;12.50;1.00;;;;;;5045834;28;19919;-76
2024/01/25 13:57:28;;;;;;;;;;;12.50;1.00;;;;;;5055458;28;19909;-76
2024/01/25 14:00:04;;;;;;;;;;;12.50;1.00;;;;;;5046131;28;19913;-76
2024/01/25 14:05:40;;;;;;;;;;;12.80;1.00;;;;;;5055818;28;19912;-76
2024/01/25 14:11:10;;;;;;;;;;;12.60;1.00;;;;;;5039607;28;19967;-76
2024/01/25 14:13:46;;;;;;;;;;;12.90;1.00;;;;;;5055812;28;19911;-76
2024/01/25 14:19:17;;;;;;;;;;;12.60;1.00;;;;;;5049090;28;19951;-77
2024/01/25 14:24:46;;;;;;;;;;;12.50;1.00;;;;;;5044859;28;20424;-77
2024/01/25 14:27:48;;;;;;;;;;;12.60;1.00;;;;;;5037441;28;19905;-77
2024/01/25 14:30:14;;;;;;;;;;;12.40;1.00;;;;;;5048691;28;19950;-76
2024/01/25 14:32:46;;;;;;;;;;;12.20;1.00;;;;;;5040188;28;19944;-76
2024/01/25 14:35:29;;;;;;;;;;;12.20;1.00;;;;;;5039202;28;19936;-76
2024/01/25 14:38:10;;;;;;;;;;;12.00;1.00;;;;;;5047695;28;19905;-77
2024/01/25 14:40:40;;;;;;;;;;;11.90;1.00;;;;;;5035426;28;20356;-77
2024/01/25 14:43:11;;;;;;;;;;;11.70;1.00;;;;;;5047134;28;19919;-75
2024/01/25 14:45:40;;;;;;;;;;;11.80;1.00;;;;;;5036491;28;20376;-76
2024/01/25 14:48:17;;;;;;;;;;;11.70;1.00;;;;;;5049074;28;20246;-76
2024/01/25 14:50:42;;;;;;;;;;;11.60;1.00;;;;;;5046562;28;20327;-76
2024/01/25 14:53:28;;;;;;;;;;;11.40;1.00;;;;;;5051420;28;19955;-77
2024/01/25 14:58:57;;;;;;;;;;;11.40;1.00;;;;;;5042478;28;19975;-85
2024/01/25 15:04:29;;;;;;;;;;;11.40;1.00;;;;;;5038980;28;20025;-78
2024/01/25 15:07:10;;;;;;;;;;;11.50;1.00;;;;;;5043807;28;19905;-78
2024/01/25 15:16:04;;;;;;;;;;;11.30;1.00;;;;;;5033718;28;19959;-77
2024/01/25 15:24:36;;;;;;;;;;;11.20;1.00;;;;;;5044339;28;19912;-77
2024/01/25 15:30:05;;;;;;;;;;;11.20;1.00;;;;;;5052221;28;19912;-76
2024/01/25 15:38:37;;;;;;;;;;;10.90;1.00;;;;;;5050259;28;20264;-76
2024/01/25 15:41:03;;;;;;;;;;;10.80;1.00;;;;;;5054142;28;19908;-76
2024/01/25 15:43:28;;;;;;;;;;;10.70;1.00;;;;;;5048437;28;20365;-76
2024/01/25 15:46:28;;;;;;;;;;;10.60;1.00;;;;;;5045327;28;19936;-76
2024/01/25 15:49:01;;;;;;;;;;;10.50;1.00;;;;;;5037224;28;20408;-78
2024/01/25 15:51:26;;;;;;;;;;;10.40;1.00;;;;;;5034050;28;19905;-75
2024/01/25 15:53:52;;;;;;;;;;;10.30;1.00;;;;;;5036059;28;20303;-75
2024/01/25 15:56:28;;;;;;;;;;;10.30;1.00;;;;;;5038564;28;19916;-75
2024/01/25 16:01:57;;;;;;;;;;;10.10;1.00;;;;;;5052430;28;20003;-76
2024/01/25 16:04:22;;;;;;;;;;;10.00;1.00;;;;;;5037339;28;19941;-76
2024/01/25 16:06:59;;;;;;;;;;;9.90;1.00;;;;;;5033488;28;19936;-76
2024/01/25 16:09:34;;;;;;;;;;;9.80;1.00;;;;;;5036243;28;20353;-76
2024/01/25 16:12:00;;;;;;;;;;;9.80;1.00;;;;;;5039742;28;19906;-76
2024/01/25 16:14:25;;;;;;;;;;;9.70;1.00;;;;;;5047140;28;19911;-75
2024/01/25 16:17:14;;;;;;;;;;;9.50;1.00;;;;;;5034230;28;19909;-80
2024/01/25 16:19:41;;;;;;;;;;;9.50;1.00;;;;;;5038531;28;19948;-75
2024/01/25 16:22:10;;;;;;;;;;;9.40;1.00;;;;;;5047003;28;20253;-75
2024/01/25 16:24:46;;;;;;;;;;;9.40;1.00;;;;;;5043954;28;19912;-74
2024/01/25 16:30:15;;;;;;;;;;;9.20;1.00;;;;;;5050819;28;19912;-75
2024/01/25 16:32:52;;;;;;;;;;;9.10;1.00;;;;;;5048647;28;19908;-76
2024/01/25 16:35:18;;;;;;;;;;;9.10;1.00;;;;;;5041682;28;19916;-77
2024/01/25 16:40:52;;;;;;;;;;;9.10;1.00;;;;;;5039131;28;19916;-77
2024/01/25 16:46:21;;;;;;;;;;;9.00;1.00;;;;;;5050795;28;19963;-77
2024/01/25 16:51:49;;;;;;;;;;;9.00;1.00;;;;;;5047653;28;19916;-77
2024/01/25 16:57:34;;;;;;;;;;;9.00;1.00;;;;;;5041312;28;19950;-76
2024/01/25 17:03:03;;;;;;;;;;;9.00;1.00;;;;;;5047025;28;20314;-75
2024/01/25 17:08:32;;;;;;;;;;;9.10;1.00;;;;;;5049308;28;19991;-75
2024/01/25 17:10:58;;;;;;;;;;;9.10;1.00;;;;;;5056185;28;19944;-76
2024/01/25 17:13:28;;;;;;;;;;;9.10;1.00;;;;;;5056490;28;19912;-77
2024/01/25 17:15:58;;;;;;;;;;;9.10;1.00;;;;;;5042048;28;19909;-77
2024/01/25 17:18:24;;;;;;;;;;;9.10;1.00;;;;;;5044404;28;19912;-79
2024/01/25 17:20:52;;;;;;;;;;;9.10;1.00;;;;;;5037626;28;19909;-75
2024/01/25 17:23:18;;;;;;;;;;;9.10;1.00;;;;;;5056963;28;19909;-79
2024/01/25 17:25:47;;;;;;;;;;;9.10;1.00;;;;;;5037922;28;19916;-76
2024/01/25 17:28:16;;;;;;;;;;;9.10;1.00;;;;;;5037070;28;19911;-76
2024/01/25 17:30:52;;;;;;;;;;;9.10;1.00;;;;;;5047686;28;19916;-77
2024/01/25 17:33:18;;;;;;;;;;;9.10;1.00;;;;;;5037183;28;19905;-81
2024/01/25 17:41:51;;;;;;;;;;;9.10;1.00;;;;;;5041139;28;19920;-80
2024/01/25 17:44:17;;;;;;;;;;;9.30;1.00;;;;;;5049097;28;19916;-80
2024/01/25 17:49:53;;;;;;;;;;;9.20;1.00;;;;;;5040633;28;19973;-75
2024/01/25 17:52:18;;;;;;;;;;;9.20;1.00;;;;;;5036821;28;20356;-75
2024/01/25 17:54:44;;;;;;;;;;;9.10;1.00;;;;;;5043090;28;19912;-75
2024/01/25 17:57:09;;;;;;;;;;;9.10;1.00;;;;;;5045766;28;19978;-74
2024/01/25 18:08:46;;;;;;;;;;;9.00;1.00;;;;;;5037613;28;19928;-81
2024/01/25 18:14:29;;;;;;;;;;;8.90;1.00;;;;;;5049091;28;19912;-79
2024/01/25 18:20:28;;;;;;;;;;;8.80;1.00;;;;;;5036229;28;19912;-79
2024/01/25 18:29:35;;;;;;;;;;;8.70;1.00;;;;;;5041381;28;19915;-79
2024/01/25 18:32:16;;;;;;;;;;;8.70;1.00;;;;;;5035573;28;20332;-77
2024/01/25 18:37:58;;;;;;;;;;;8.70;1.00;;;;;;5035568;28;19970;-77
2024/01/25 18:41:00;;;;;;;;;;;8.70;1.00;;;;;;5040442;28;19909;-79
2024/01/25 18:49:32;;;;;;;;;;;8.70;1.00;;;;;;5035011;28;19912;-81
2024/01/25 18:51:58;;;;;;;;;;;8.80;1.00;;;;;;5034095;28;20276;-80
2024/01/25 18:57:27;;;;;;;;;;;8.80;1.00;;;;;;5036824;28;20376;-71
2024/01/25 18:59:53;;;;;;;;;;;8.90;1.00;;;;;;5034944;28;19905;-72
2024/01/25 19:02:19;;;;;;;;;;;8.80;1.00;;;;;;5041321;28;19913;-71
2024/01/25 19:04:59;;;;;;;;;;;8.90;1.00;;;;;;5051167;28;19905;-76
2024/01/25 19:07:41;;;;;;;;;;;8.90;1.00;;;;;;5041553;28;19912;-76
2024/01/25 19:10:23;;;;;;;;;;;8.90;1.00;;;;;;5037857;28;19909;-77
2024/01/25 19:15:51;;;;;;;;;;;8.90;1.00;;;;;;5054784;28;20395;-78
2024/01/25 19:21:20;;;;;;;;;;;9.10;1.00;;;;;;5053998;28;19966;-77
2024/01/25 19:23:58;;;;;;;;;;;9.10;1.00;;;;;;5046409;28;19909;-77
2024/01/25 19:26:30;;;;;;;;;;;9.10;1.00;;;;;;5034568;28;19940;-76
2024/01/25 19:29:18;;;;;;;;;;;9.20;1.00;;;;;;5034769;28;19905;-76
2024/01/25 19:32:10;;;;;;;;;;;9.20;1.00;;;;;;5044145;28;20006;-75
2024/01/25 19:34:41;;;;;;;;;;;9.20;1.00;;;;;;5047590;28;19916;-76
2024/01/25 19:37:28;;;;;;;;;;;9.20;1.00;;;;;;5034605;28;19905;-77
2024/01/25 19:39:58;;;;;;;;;;;9.20;1.00;;;;;;5059860;28;19999;-77
2024/01/25 19:42:28;;;;;;;;;;;9.10;1.00;;;;;;5037059;28;19913;-77
2024/01/25 19:44:58;;;;;;;;;;;9.10;1.00;;;;;;5035541;28;19919;-77
2024/01/25 19:53:30;;;;;;;;;;;9.10;1.00;;;;;;5035000;28;20046;-76
2024/01/25 19:56:05;;;;;;;;;;;9.10;1.00;;;;;;5053917;28;20360;-76
2024/01/25 20:01:35;;;;;;;;;;;9.10;1.00;;;;;;5035251;28;20275;-76
2024/01/25 20:07:03;;;;;;;;;;;9.00;1.00;;;;;;5053829;28;20042;-76
2024/01/25 20:15:53;;;;;;;;;;;9.20;1.00;;;;;;5033926;28;20383;-76
2024/01/25 20:18:18;;;;;;;;;;;9.20;1.00;;;;;;5049420;28;19928;-77
2024/01/25 20:24:10;;;;;;;;;;;9.20;1.00;;;;;;5038497;28;19920;-76
2024/01/25 20:27:05;;;;;;;;;;;9.20;1.00;;;;;;5042744;28;19909;-76
2024/01/25 20:32:40;;;;;;;;;;;9.20;1.00;;;;;;5033844;28;20004;-76
2024/01/25 20:35:40;;;;;;;;;;;9.20;1.00;;;;;;5052378;28;20266;-76
2024/01/25 20:41:09;;;;;;;;;;;9.10;1.00;;;;;;5043198;28;20430;-76
2024/01/25 20:46:38;;;;;;;;;;;9.10;1.00;;;;;;5046777;28;19912;-76
2024/01/25 20:49:04;;;;;;;;;;;9.10;1.00;;;;;;5033717;28;19905;-76
2024/01/25 20:51:36;;;;;;;;;;;9.10;1.00;;;;;;5042560;28;19932;-77
2024/01/25 20:54:02;;;;;;;;;;;9.00;1.00;;;;;;5035004;28;20333;-76
2024/01/25 20:56:52;;;;;;;;;;;9.10;2.10;;;;;;5045592;28;19955;-76
2024/01/25 20:59:28;;;;;;;;;;;9.20;1.40;;;;;;5033875;28;19905;-76
2024/01/25 21:02:28;;;;;;;;;;;9.20;1.00;;;;;;5033706;28;19913;-76
2024/01/25 21:04:59;;;;;;;;;;;9.20;1.00;;;;;;5044898;28;19912;-76
2024/01/25 21:13:30;;;;;;;;;;;9.10;1.00;;;;;;5039835;28;19970;-78
2024/01/25 21:19:28;;;;;;;;;;;9.10;9.60;;;;;;5050235;28;19979;-78
2024/01/25 21:22:28;;;;;;;;;;;9.10;11.30;;;;;;5050678;28;20371;-77
2024/01/25 21:25:10;;;;;;;;;;;9.10;10.00;;;;;;5037037;28;19905;-78
2024/01/25 21:27:42;;;;;;;;;;;9.10;15.00;;;;;;5038160;28;19909;-78
2024/01/25 21:30:23;;;;;;;;;;;9.20;13.10;;;;;;5052174;28;20003;-78
2024/01/25 21:32:53;;;;;;;;;;;9.10;17.70;;;;;;5041491;28;19916;-78
2024/01/25 21:35:18;;;;;;;;;;;9.10;19.60;;;;;;5041194;28;19995;-77
2024/01/25 21:41:00;;;;;;;;;;;9.00;26.10;;;;;;5047610;28;19915;-78
2024/01/25 21:43:26;;;;;;;;;;;9.10;27.90;;;;;;5050079;28;20019;-77
2024/01/25 21:45:53;;;;;;;;;;;9.00;29.00;;;;;;5037261;28;19963;-77
2024/01/25 21:51:52;;;;;;;;;;;9.10;31.30;;;;;;5055522;28;19937;-75
2024/01/25 21:54:22;;;;;;;;;;;9.00;34.90;;;;;;5051004;28;19909;-75
2024/01/25 21:56:53;;;;;;;;;;;9.10;38.90;;;;;;5036473;28;19908;-75
2024/01/25 22:02:28;;;;;;;;;;;;;;;;;;5038968;28;20280;-75
2024/01/25 22:04:55;;;;;;;;;;;9.20;39.00;;;;;;5048477;28;20000;-75
2024/01/25 22:07:35;;;;;;;;;;;9.30;42.50;;;;;;5047823;28;19913;-75
2024/01/25 22:10:05;;;;;;;;;;;9.20;39.00;;;;;;5059694;28;19997;-75
2024/01/25 22:12:52;;;;;;;;;;;9.30;42.30;;;;;;5059618;28;19932;-75